Station History

Weather Underground - logo

Station Historical Data
Daily Summary for December 12, 2017 Units:  English    Metric   Both
« Previous Day
Next Day »
Daily Weekly Monthly Yearly Custom
  High: Low: Average:
Temperature: 63.0 °F 33.1 °F 45.2 °F
Dew Point: 42.5 °F 30.8 °F 36.7 °F
Humidity: 94 % 42 % 75 %
Wind Speed: 3.5 mph 0.0 mph 0.2 mph
Wind Gust: 3.5 mph - -
Wind:- - WSW
Pressure: 30.38 in 30.21 in -
Precipitation: 0.00 in    
Historical Graphs
 
 
Tabular Data for December 12, 2017
Time Temperature Dew Point Pressure Wind Wind Speed Wind Gust Humidity Rainfall Rate (Hourly)
00:02 39.1 °F 35.6 °F 30.37 in Calm     87 % 0.00 in
00:07 38.9 °F 35.4 °F 30.37 in Calm     87 % 0.00 in
00:12 39.0 °F 35.5 °F 30.37 in NNE 1.2 mph   87 % 0.00 in
00:17 39.3 °F 35.8 °F 30.37 in North 1.2 mph 1.2 mph 87 % 0.00 in
00:22 39.5 °F 35.7 °F 30.37 in Calm     86 % 0.00 in
00:27 39.6 °F 35.8 °F 30.36 in Calm     86 % 0.00 in
00:32 39.9 °F 35.8 °F 30.37 in Calm     85 % 0.00 in
00:37 40.0 °F 35.9 °F 30.37 in Calm     85 % 0.00 in
00:42 40.1 °F 35.7 °F 30.37 in Calm     84 % 0.00 in
00:47 40.0 °F 35.6 °F 30.37 in Calm     84 % 0.00 in
00:52 39.5 °F 35.4 °F 30.37 in Calm     85 % 0.00 in
00:57 39.5 °F 35.4 °F 30.37 in Calm     85 % 0.00 in
01:07 39.5 °F 35.4 °F 30.37 in Calm     85 % 0.00 in
01:12 39.6 °F 35.5 °F 30.37 in Calm     85 % 0.00 in
01:22 39.5 °F 35.1 °F 30.37 in Calm     84 % 0.00 in
01:27 39.4 °F 35.3 °F 30.36 in Calm     85 % 0.00 in
01:32 39.0 °F 34.6 °F 30.36 in Calm     84 % 0.00 in
01:37 38.2 °F 33.8 °F 30.36 in Calm     84 % 0.00 in
01:42 37.5 °F 33.4 °F 30.36 in Calm     85 % 0.00 in
01:52 36.0 °F 32.2 °F 30.36 in Calm     86 % 0.00 in
01:57 35.6 °F 32.1 °F 30.36 in Calm     87 % 0.00 in
02:02 35.2 °F 31.7 °F 30.37 in Calm     87 % 0.00 in
02:07 35.0 °F 31.8 °F 30.36 in Calm     88 % 0.00 in
02:12 34.9 °F 32.0 °F 30.36 in Calm     89 % 0.00 in
02:17 34.7 °F 31.8 °F 30.37 in Calm     89 % 0.00 in
02:22 34.7 °F 31.8 °F 30.37 in Calm     89 % 0.00 in
02:27 34.7 °F 32.1 °F 30.37 in Calm     90 % 0.00 in
02:32 34.7 °F 32.1 °F 30.37 in Calm     90 % 0.00 in
02:37 34.6 °F 32.0 °F 30.37 in Calm     90 % 0.00 in
02:42 34.5 °F 31.9 °F 30.37 in Calm     90 % 0.00 in
02:57 35.1 °F 32.5 °F 30.37 in Calm     90 % 0.00 in
03:02 35.2 °F 32.6 °F 30.37 in Calm     90 % 0.00 in
03:07 35.4 °F 33.0 °F 30.37 in Calm     91 % 0.00 in
03:12 35.4 °F 32.8 °F 30.37 in Calm     90 % 0.00 in
03:17 35.2 °F 32.6 °F 30.37 in Calm     90 % 0.00 in
03:22 35.1 °F 32.5 °F 30.37 in Calm     90 % 0.00 in
03:27 35.0 °F 32.4 °F 30.37 in Calm     90 % 0.00 in
03:32 34.9 °F 32.5 °F 30.37 in Calm     91 % 0.00 in
03:37 35.0 °F 32.6 °F 30.37 in Calm     91 % 0.00 in
03:47 34.9 °F 32.5 °F 30.37 in Calm     91 % 0.00 in
04:03 34.7 °F 32.3 °F 30.36 in Calm     91 % 0.00 in
04:08 34.8 °F 32.4 °F 30.36 in Calm     91 % 0.00 in
04:13 34.8 °F 32.4 °F 30.36 in Calm     91 % 0.00 in
04:18 34.8 °F 32.4 °F 30.36 in Calm     91 % 0.00 in
04:20 34.8 °F 32.4 °F 30.36 in Calm     91 % 0.00 in
04:25 34.6 °F 32.0 °F 30.36 in Calm     90 % 0.00 in
04:30 34.3 °F 31.7 °F 30.36 in Calm     90 % 0.00 in
04:35 34.3 °F 31.9 °F 30.36 in Calm     91 % 0.00 in
04:40 34.2 °F 31.6 °F 30.35 in Calm     90 % 0.00 in
04:45 34.1 °F 31.5 °F 30.36 in Calm     90 % 0.00 in
04:50 34.2 °F 31.8 °F 30.35 in Calm     91 % 0.00 in
04:55 34.4 °F 32.0 °F 30.35 in Calm     91 % 0.00 in
05:00 34.4 °F 31.8 °F 30.35 in Calm     90 % 0.00 in
05:10 34.4 °F 31.8 °F 30.35 in Calm     90 % 0.00 in
05:15 34.2 °F 31.6 °F 30.35 in Calm     90 % 0.00 in
05:20 34.4 °F 32.0 °F 30.35 in Calm     91 % 0.00 in
05:25 34.4 °F 32.0 °F 30.35 in Calm     91 % 0.00 in
05:35 34.1 °F 31.7 °F 30.35 in Calm     91 % 0.00 in
05:40 34.3 °F 32.2 °F 30.36 in Calm     92 % 0.00 in
05:50 34.0 °F 31.6 °F 30.36 in Calm     91 % 0.00 in
05:55 33.8 °F 31.5 °F 30.36 in Calm     91 % 0.00 in
06:05 33.2 °F 30.9 °F 30.36 in Calm     91 % 0.00 in
06:10 33.1 °F 30.8 °F 30.37 in Calm     91 % 0.00 in
06:15 33.2 °F 31.1 °F 30.37 in Calm     92 % 0.00 in
06:16 33.2 °F 31.1 °F 30.37 in Calm     92 % 0.00 in
06:21 33.4 °F 31.6 °F 30.37 in Calm     93 % 0.00 in
06:26 33.4 °F 31.6 °F 30.36 in Calm     93 % 0.00 in
06:31 33.5 °F 31.7 °F 30.37 in Calm     93 % 0.00 in
06:41 34.0 °F 32.5 °F 30.37 in Calm     94 % 0.00 in
06:46 34.3 °F 32.8 °F 30.37 in Calm     94 % 0.00 in
06:51 34.3 °F 32.5 °F 30.37 in Calm     93 % 0.00 in
06:53 34.3 °F 32.5 °F 30.37 in Calm     93 % 0.00 in
06:58 34.2 °F 32.4 °F 30.37 in Calm     93 % 0.00 in
07:03 34.1 °F 32.3 °F 30.37 in Calm     93 % 0.00 in
07:08 34.2 °F 32.4 °F 30.37 in Calm     93 % 0.00 in
07:13 34.4 °F 32.6 °F 30.37 in Calm     93 % 0.00 in
07:23 34.3 °F 32.2 °F 30.37 in Calm     92 % 0.00 in
07:33 34.6 °F 32.8 °F 30.37 in Calm     93 % 0.00 in
07:38 34.9 °F 33.1 °F 30.37 in Calm     93 % 0.00 in
07:53 36.4 °F 34.6 °F 30.37 in Calm     93 % 0.00 in
07:58 37.1 °F 35.0 °F 30.37 in Calm     92 % 0.00 in
08:03 37.9 °F 35.2 °F 30.37 in Calm     90 % 0.00 in
08:08 38.5 °F 35.5 °F 30.37 in Calm     89 % 0.00 in
08:13 39.2 °F 35.7 °F 30.37 in Calm     87 % 0.00 in
08:18 40.0 °F 36.2 °F 30.38 in Calm     86 % 0.00 in
08:23 40.6 °F 36.1 °F 30.38 in Calm     84 % 0.00 in
08:33 42.0 °F 36.9 °F 30.38 in Calm     82 % 0.00 in
08:38 42.6 °F 36.9 °F 30.38 in SE 1.2 mph 1.2 mph 80 % 0.00 in
08:43 43.3 °F 36.9 °F 30.38 in Calm     78 % 0.00 in
08:48 43.9 °F 37.2 °F 30.38 in SE 1.2 mph   77 % 0.00 in
09:03 46.0 °F 37.8 °F 30.38 in Calm     73 % 0.00 in
09:08 46.9 °F 38.7 °F 30.38 in Calm     73 % 0.00 in
09:18 48.0 °F 38.3 °F 30.38 in SE 1.2 mph   69 % 0.00 in
09:23 48.6 °F 39.3 °F 30.38 in Calm     70 % 0.00 in
09:38 50.8 °F 40.6 °F 30.38 in SSE 1.2 mph   68 % 0.00 in
09:43 51.2 °F 39.4 °F 30.38 in Calm     64 % 0.00 in
09:48 51.5 °F 40.1 °F 30.37 in SSE 1.2 mph 1.2 mph 65 % 0.00 in
09:53 52.4 °F 40.2 °F 30.37 in Calm     63 % 0.00 in
09:58 52.5 °F 39.4 °F 30.37 in Calm     61 % 0.00 in
10:03 52.4 °F 40.2 °F 30.37 in Calm     63 % 0.00 in
10:08 52.9 °F 40.6 °F 30.36 in Calm     63 % 0.00 in
10:13 53.7 °F 40.1 °F 30.36 in Calm     60 % 0.00 in
10:18 53.8 °F 40.7 °F 30.36 in Calm     61 % 0.00 in
10:19 53.9 °F 40.3 °F 30.36 in NNW 1.2 mph   60 % 0.00 in
10:24 53.8 °F 39.8 °F 30.36 in Calm     59 % 0.00 in
10:30 53.8 °F 39.8 °F 30.35 in WNW 1.0 mph   59 % 0.00 in
10:35 54.3 °F 39.8 °F 30.35 in West 1.2 mph 1.2 mph 58 % 0.00 in
10:40 54.4 °F 39.9 °F 30.35 in WNW 3.5 mph 3.5 mph 58 % 0.00 in
10:45 54.8 °F 39.4 °F 30.35 in Calm     56 % 0.00 in
10:55 55.1 °F 39.7 °F 30.34 in SSW 1.2 mph 1.2 mph 56 % 0.00 in
11:00 55.4 °F 39.5 °F 30.34 in Calm     55 % 0.00 in
11:05 55.9 °F 40.4 °F 30.33 in Calm     56 % 0.00 in
11:10 56.3 °F 39.9 °F 30.33 in NW 1.2 mph 1.2 mph 54 % 0.00 in
11:15 56.6 °F 40.1 °F 30.33 in Calm     54 % 0.00 in
11:20 56.8 °F 40.3 °F 30.33 in NW 1.2 mph 1.2 mph 54 % 0.00 in
11:25 57.2 °F 40.7 °F 30.32 in NW 2.0 mph 2.0 mph 54 % 0.00 in
11:30 57.4 °F 39.9 °F 30.32 in Calm     52 % 0.00 in
11:35 57.8 °F 40.8 °F 30.32 in Calm     53 % 0.00 in
11:45 58.0 °F 40.0 °F 30.31 in WNW 1.2 mph 1.2 mph 51 % 0.00 in
11:50 58.3 °F 39.7 °F 30.31 in WNW 1.2 mph 1.2 mph 50 % 0.00 in
11:55 58.5 °F 39.9 °F 30.31 in Calm     50 % 0.00 in
12:10 59.2 °F 40.0 °F 30.29 in NNW 1.2 mph 1.2 mph 49 % 0.00 in
12:15 59.5 °F 40.3 °F 30.29 in NW 1.2 mph 1.2 mph 49 % 0.00 in
12:30 59.9 °F 40.7 °F 30.28 in West 1.2 mph 1.2 mph 49 % 0.00 in
12:35 60.1 °F 40.3 °F 30.27 in Calm     48 % 0.00 in
12:40 60.5 °F 40.7 °F 30.27 in WNW 1.2 mph   48 % 0.00 in
12:50 61.0 °F 41.2 °F 30.26 in West 1.2 mph 1.2 mph 48 % 0.00 in
12:55 61.1 °F 41.8 °F 30.26 in SSE 1.2 mph 1.2 mph 49 % 0.00 in
13:05 62.0 °F 41.0 °F 30.26 in West 2.3 mph 2.3 mph 46 % 0.00 in
13:15 61.9 °F 41.4 °F 30.25 in Calm   0.2 mph 47 % 0.00 in
13:20 62.4 °F 40.8 °F 30.25 in Calm     45 % 0.00 in
13:25 62.6 °F 40.4 °F 30.25 in NW 1.2 mph 1.2 mph 44 % 0.00 in
13:30 62.5 °F 40.9 °F 30.24 in WNW 2.3 mph 2.3 mph 45 % 0.00 in
13:35 62.5 °F 40.3 °F 30.24 in Calm     44 % 0.00 in
13:40 62.9 °F 41.2 °F 30.24 in ESE 1.2 mph   45 % 0.00 in
13:45 62.9 °F 40.0 °F 30.24 in WNW 2.3 mph 2.3 mph 43 % 0.00 in
13:50 62.8 °F 40.5 °F 30.24 in WNW 1.0 mph   44 % 0.00 in
14:00 62.8 °F 40.0 °F 30.23 in Calm     43 % 0.00 in
14:05 62.9 °F 40.0 °F 30.23 in West 1.2 mph   43 % 0.00 in
14:10 62.9 °F 40.0 °F 30.23 in Calm     43 % 0.00 in
14:15 63.0 °F 40.1 °F 30.23 in NW 2.3 mph 2.3 mph 43 % 0.00 in
14:16 63.0 °F 40.1 °F 30.23 in NW 2.3 mph 2.3 mph 43 % 0.00 in
14:31 63.0 °F 40.1 °F 30.23 in Calm     43 % 0.00 in
14:36 63.0 °F 40.1 °F 30.22 in Calm     43 % 0.00 in
14:41 63.0 °F 39.5 °F 30.22 in Calm     42 % 0.00 in
14:46 62.8 °F 40.0 °F 30.22 in Calm     43 % 0.00 in
14:51 62.7 °F 39.3 °F 30.22 in West 1.2 mph   42 % 0.00 in
15:01 62.5 °F 39.7 °F 30.22 in Calm     43 % 0.00 in
15:11 62.5 °F 39.1 °F 30.21 in Calm     42 % 0.00 in
15:21 62.3 °F 40.1 °F 30.21 in Calm     44 % 0.00 in
15:26 62.2 °F 40.0 °F 30.21 in Calm     44 % 0.00 in
15:36 61.9 °F 39.7 °F 30.21 in Calm     44 % 0.00 in
15:41 61.8 °F 39.1 °F 30.21 in Calm     43 % 0.00 in
15:46 61.6 °F 40.6 °F 30.21 in Calm     46 % 0.00 in
15:54 61.3 °F 39.8 °F 30.21 in Calm     45 % 0.00 in
15:59 61.1 °F 40.1 °F 30.21 in Calm     46 % 0.00 in
16:09 60.2 °F 40.4 °F 30.21 in Calm     48 % 0.00 in
16:14 59.7 °F 41.0 °F 30.21 in Calm     50 % 0.00 in
16:19 59.1 °F 42.0 °F 30.21 in Calm     53 % 0.00 in
16:30 57.6 °F 42.5 °F 30.21 in Calm     57 % 0.00 in
16:35 56.7 °F 41.6 °F 30.21 in Calm     57 % 0.00 in
16:45 55.4 °F 41.7 °F 30.21 in Calm     60 % 0.00 in
16:50 54.6 °F 41.8 °F 30.21 in Calm     62 % 0.00 in
16:55 53.8 °F 41.5 °F 30.21 in Calm     63 % 0.00 in
17:00 53.5 °F 41.6 °F 30.22 in Calm     64 % 0.00 in
17:05 53.0 °F 41.5 °F 30.22 in Calm     65 % 0.00 in
17:10 52.4 °F 41.4 °F 30.22 in Calm     66 % 0.00 in
17:25 50.6 °F 41.5 °F 30.22 in Calm     71 % 0.00 in
17:31 50.3 °F 41.6 °F 30.22 in Calm     72 % 0.00 in
17:36 50.2 °F 41.2 °F 30.22 in Calm     71 % 0.00 in
17:41 49.8 °F 41.1 °F 30.22 in Calm     72 % 0.00 in
18:02 48.0 °F 40.5 °F 30.22 in Calm     75 % 0.00 in
18:12 47.3 °F 40.5 °F 30.22 in Calm     77 % 0.00 in
18:17 47.1 °F 40.3 °F 30.23 in Calm     77 % 0.00 in
18:22 46.9 °F 40.1 °F 30.23 in Calm     77 % 0.00 in
18:27 46.6 °F 40.1 °F 30.23 in Calm     78 % 0.00 in
18:32 46.2 °F 39.7 °F 30.23 in Calm     78 % 0.00 in
18:37 45.8 °F 39.3 °F 30.23 in Calm     78 % 0.00 in
18:42 45.4 °F 39.3 °F 30.23 in Calm     79 % 0.00 in
18:47 45.1 °F 39.3 °F 30.23 in Calm     80 % 0.00 in
18:52 44.9 °F 39.4 °F 30.23 in Calm     81 % 0.00 in
18:57 44.8 °F 39.6 °F 30.24 in Calm     82 % 0.00 in
19:02 45.0 °F 39.5 °F 30.23 in Calm     81 % 0.00 in
19:12 44.7 °F 39.2 °F 30.23 in Calm     81 % 0.00 in
19:17 44.6 °F 39.4 °F 30.23 in Calm     82 % 0.00 in
19:20 44.5 °F 39.3 °F 30.23 in Calm     82 % 0.00 in
19:23 44.5 °F 39.0 °F 30.23 in Calm     81 % 0.00 in
19:28 44.2 °F 39.1 °F 30.23 in Calm     82 % 0.00 in
19:33 44.0 °F 38.9 °F 30.23 in Calm     82 % 0.00 in
19:43 43.6 °F 38.8 °F 30.23 in Calm     83 % 0.00 in
19:53 43.6 °F 38.8 °F 30.23 in Calm     83 % 0.00 in
19:58 43.4 °F 38.6 °F 30.23 in Calm     83 % 0.00 in
20:03 43.1 °F 38.3 °F 30.23 in Calm     83 % 0.00 in
20:08 42.7 °F 37.9 °F 30.23 in Calm     83 % 0.00 in
20:13 42.3 °F 37.8 °F 30.23 in Calm     84 % 0.00 in
20:28 41.3 °F 37.1 °F 30.23 in Calm     85 % 0.00 in
20:33 41.5 °F 37.3 °F 30.23 in Calm     85 % 0.00 in
20:43 41.4 °F 37.2 °F 30.23 in Calm     85 % 0.00 in
20:48 41.1 °F 36.9 °F 30.23 in Calm     85 % 0.00 in
20:53 40.8 °F 36.6 °F 30.23 in Calm     85 % 0.00 in
21:08 40.5 °F 36.9 °F 30.23 in Calm     87 % 0.00 in
21:13 40.6 °F 37.3 °F 30.23 in Calm     88 % 0.00 in
21:23 40.6 °F 37.0 °F 30.23 in Calm     87 % 0.00 in
21:28 40.6 °F 37.3 °F 30.23 in Calm     88 % 0.00 in
21:33 40.6 °F 37.0 °F 30.23 in Calm     87 % 0.00 in
21:38 40.5 °F 36.9 °F 30.23 in Calm     87 % 0.00 in
21:54 40.8 °F 36.9 °F 30.23 in Calm     86 % 0.00 in
21:59 40.8 °F 36.9 °F 30.23 in Calm     86 % 0.00 in
22:04 40.7 °F 36.8 °F 30.22 in Calm     86 % 0.00 in
22:09 40.7 °F 36.8 °F 30.22 in Calm     86 % 0.00 in
22:14 40.6 °F 36.7 °F 30.22 in Calm     86 % 0.00 in
22:24 40.0 °F 36.2 °F 30.22 in Calm     86 % 0.00 in
22:29 39.7 °F 35.9 °F 30.22 in Calm     86 % 0.00 in
22:34 39.5 °F 35.7 °F 30.22 in Calm     86 % 0.00 in
22:39 39.0 °F 34.9 °F 30.22 in Calm     85 % 0.00 in
22:44 38.5 °F 34.7 °F 30.22 in Calm     86 % 0.00 in
22:49 37.9 °F 34.1 °F 30.23 in Calm     86 % 0.00 in
22:54 37.4 °F 33.9 °F 30.23 in Calm     87 % 0.00 in
22:59 37.1 °F 33.9 °F 30.22 in Calm     88 % 0.00 in
23:09 36.8 °F 33.9 °F 30.22 in Calm     89 % 0.00 in
23:14 36.8 °F 33.9 °F 30.23 in Calm     89 % 0.00 in
23:29 36.5 °F 33.6 °F 30.23 in Calm     89 % 0.00 in
23:34 36.2 °F 33.3 °F 30.23 in Calm     89 % 0.00 in
23:39 36.0 °F 33.1 °F 30.23 in Calm     89 % 0.00 in
23:54 35.7 °F 32.8 °F 30.22 in Calm     89 % 0.00 in
23:59 35.6 °F 32.7 °F 30.22 in Calm     89 % 0.00 in
Park Place, Exeter, Tulare County, California, USA
Compliments of Weather Underground - 2.5 mb